Time;durP1;ratioP1;P1;durP2;ratioP2;P2;SDS_P1;SDS_P2;PMS_P1;PMS_P2;Temp;Humidity;BMP_temperature;BMP_pressure;BME280_temperature;BME280_humidity;BME280_pressure;Samples;Min_cycle;Max_cycle;Signal;HPM_P1;HPM_P2
2023/09/27 00:02:14;;;;;;;4.97;3.23;;;;;;;14.89;78.59;99603.63;7166344;40;20328;31
2023/09/27 00:07:34;;;;;;;4.15;2.95;;;;;;;15.03;79.30;99601.97;7201404;40;20259;31
2023/09/27 00:13:10;;;;;;;4.13;3.00;;;;;;;15.01;78.92;99591.28;7209604;40;20240;31
2023/09/27 00:18:30;;;;;;;3.40;2.85;;;;;;;14.95;79.71;99591.19;7245741;39;20264;31
2023/09/27 00:24:05;;;;;;;5.10;3.20;;;;;;;14.84;79.72;99596.03;7258126;40;20362;31
2023/09/27 00:29:42;;;;;;;7.60;3.10;;;;;;;14.75;79.60;99574.59;7299127;39;20280;31
2023/09/27 00:40:22;;;;;;;4.90;3.05;;;;;;;14.58;79.97;99600.16;7282914;39;20376;31
2023/09/27 00:51:01;;;;;;;9.60;4.10;;;;;;;14.49;80.51;99598.56;7293516;39;20270;31
2023/09/27 01:01:44;;;;;;;7.30;4.03;;;;;;;14.63;79.43;99609.47;7283357;40;20374;31
2023/09/27 01:07:21;;;;;;;6.13;3.67;;;;;;;14.59;79.48;99586.44;7298123;40;20242;31
2023/09/27 01:12:56;;;;;;;4.77;3.00;;;;;;;14.77;78.45;99572.53;7316854;39;20345;31
2023/09/27 01:18:31;;;;;;;6.70;3.30;;;;;;;14.54;78.65;99579.88;7256371;40;20345;31
2023/09/27 01:24:07;;;;;;;5.20;3.20;;;;;;;14.17;79.63;99584.16;7221283;40;20276;31
2023/09/27 01:29:30;;;;;;;4.80;3.30;;;;;;;14.29;79.09;99574.63;7179250;40;20235;31
2023/09/27 01:34:47;;;;;;;4.37;3.20;;;;;;;14.39;78.64;99585.25;7186983;40;21983;31
2023/09/27 01:40:30;;;;;;;7.90;3.50;;;;;;;14.08;79.93;99588.00;7213273;40;20258;31
2023/09/27 01:45:44;;;;;;;6.04;3.20;;;;;;;14.18;78.88;99571.47;7242614;40;20245;31
2023/09/27 01:51:05;;;;;;;4.03;2.83;;;;;;;14.35;78.49;99563.06;7284225;39;20383;31
2023/09/27 01:56:39;;;;;;;6.60;3.00;;;;;;;14.31;79.29;99566.28;7291389;39;20241;31
2023/09/27 02:08:17;;;;;;;8.30;3.70;;;;;;;14.24;78.70;99571.59;7273167;40;20277;31
2023/09/27 02:18:58;;;;;;;8.80;3.60;;;;;;;13.91;79.80;99608.91;7258687;40;20262;31
2023/09/27 02:29:26;;;;;;;5.67;2.93;;;;;;;14.17;78.66;99600.44;7319940;39;20394;31
2023/09/27 02:35:04;;;;;;;6.25;3.70;;;;;;;14.18;77.85;99598.56;7333540;39;20287;31
2023/09/27 02:40:22;;;;;;;7.00;3.40;;;;;;;13.92;78.47;99610.59;7299161;39;20373;31
2023/09/27 02:45:58;;;;;;;6.90;3.80;;;;;;;13.92;78.98;99628.72;7278451;40;20267;31
2023/09/27 02:56:36;;;;;;;4.40;3.40;;;;;;;14.04;78.47;99618.34;7324628;39;21412;31
2023/09/27 03:07:01;;;;;;;5.28;3.58;;;;;;;14.00;77.62;99628.66;7321010;39;20277;31
2023/09/27 03:12:39;;;;;;;6.10;3.60;;;;;;;13.81;78.55;99621.84;7339677;39;20369;31
2023/09/27 03:18:13;;;;;;;6.37;3.17;;;;;;;13.85;77.34;99631.31;7312105;39;20337;31
2023/09/27 03:23:46;;;;;;;7.20;3.10;;;;;;;13.59;77.08;99622.63;7298737;40;20249;31
2023/09/27 03:29:10;;;;;;;5.57;3.30;;;;;;;13.51;77.35;99628.09;7320541;39;20245;31
2023/09/27 03:34:32;;;;;;;3.50;3.20;;;;;;;13.58;77.11;99625.50;7306586;39;20267;31
2023/09/27 03:40:08;;;;;;;4.25;3.50;;;;;;;13.39;77.16;99624.88;7309711;39;20240;31
2023/09/27 03:45:41;;;;;;;6.67;3.27;;;;;;;13.39;76.91;99624.03;7317832;39;20258;31
2023/09/27 03:51:16;;;;;;;4.75;3.30;;;;;;;13.08;77.86;99632.03;7323651;39;20344;31
2023/09/27 03:56:52;;;;;;;5.55;3.45;;;;;;;13.00;77.82;99626.63;7298057;39;20238;31
2023/09/27 04:02:27;;;;;;;4.40;3.83;;;;;;;13.12;77.49;99629.88;7275699;40;20438;31
2023/09/27 04:07:49;;;;;;;10.83;3.70;;;;;;;13.02;77.89;99630.88;7247333;40;20245;31
2023/09/27 04:13:13;;;;;;;5.10;3.70;;;;;;;13.00;77.38;99637.47;7297403;39;20289;31
2023/09/27 04:18:48;;;;;;;3.50;3.20;;;;;;;12.84;77.62;99637.47;7259433;40;20347;31
2023/09/27 04:24:23;;;;;;;3.50;3.00;;;;;;;12.92;77.53;99623.94;7264723;40;21233;31
2023/09/27 04:29:44;;;;;;;3.70;3.30;;;;;;;13.07;77.58;99614.97;7296321;40;20253;31
2023/09/27 04:35:14;;;;;;;4.10;3.40;;;;;;;12.99;77.81;99608.69;7273721;40;20268;31
2023/09/27 04:45:54;;;;;;;6.80;3.20;;;;;;;12.98;77.88;99625.97;7240598;40;21109;31
2023/09/27 04:56:34;;;;;;;7.60;4.17;;;;;;;12.76;79.87;99624.81;7300026;39;21192;31
2023/09/27 05:06:58;;;;;;;5.60;3.90;;;;;;;12.43;82.27;99637.47;7288083;39;21128;31
2023/09/27 05:17:38;;;;;;;6.70;4.80;;;;;;;12.42;81.80;99651.16;7302434;39;20270;31
2023/09/27 05:28:20;;;;;;;6.20;3.97;;;;;;;12.57;80.58;99661.16;7311699;39;21498;31
2023/09/27 05:33:55;;;;;;;4.85;3.60;;;;;;;12.79;79.89;99648.81;7240885;40;20324;31
2023/09/27 05:39:32;;;;;;;5.47;3.73;;;;;;;12.61;80.80;99651.69;7198504;40;20372;31
2023/09/27 05:44:52;;;;;;;5.60;3.30;;;;;;;12.64;80.41;99650.50;7198812;40;20254;31
2023/09/27 05:50:27;;;;;;;4.90;3.77;;;;;;;12.62;80.38;99656.09;7229972;39;20242;31
2023/09/27 05:56:03;;;;;;;4.80;3.80;;;;;;;12.54;80.68;99664.19;7251305;40;20257;31
2023/09/27 06:01:44;;;;;;;9.40;5.10;;;;;;;12.60;80.45;99659.97;7218478;40;20258;31
2023/09/27 06:07:20;;;;;;;5.60;3.90;;;;;;;12.85;80.54;99666.25;7225508;40;20262;31
2023/09/27 06:12:44;;;;;;;5.50;3.40;;;;;;;13.07;79.53;99668.25;7176676;40;20247;31
2023/09/27 06:18:23;;;;;;;4.55;3.40;;;;;;;13.12;79.12;99670.47;7198843;40;20262;31
2023/09/27 06:24:00;;;;;;;4.43;3.60;;;;;;;13.18;78.80;99669.78;7216545;40;20510;31
2023/09/27 06:29:35;;;;;;;4.67;3.47;;;;;;;13.26;79.03;99681.44;7188980;40;20261;31
2023/09/27 06:35:13;;;;;;;5.93;3.57;;;;;;;13.29;79.03;99691.94;7240848;40;21435;31
2023/09/27 06:40:45;;;;;;;5.93;3.57;;;;;;;13.35;79.18;99677.69;7273310;40;20241;31
2023/09/27 06:46:24;;;;;;;4.17;3.57;;;;;;;13.49;79.61;99679.69;7201400;40;20251;31
2023/09/27 06:51:59;;;;;;;3.80;3.30;;;;;;;13.61;79.52;99690.16;7159137;40;20243;31
2023/09/27 06:57:33;;;;;;;6.37;3.93;;;;;;;13.72;80.24;99668.97;7155035;40;20269;31
2023/09/27 07:03:08;;;;;;;6.00;4.50;;;;;;;13.95;80.25;99669.03;7212826;40;20250;31
2023/09/27 07:08:47;;;;;;;7.30;4.30;;;;;;;14.15;80.26;99669.44;7289237;40;20237;31
2023/09/27 07:14:19;;;;;;;7.23;4.27;;;;;;;14.34;80.87;99675.25;7064912;40;20230;31
2023/09/27 07:19:53;;;;;;;6.00;4.80;;;;;;;14.55;80.50;99676.50;7250548;40;20264;31
2023/09/27 07:25:29;;;;;;;6.05;4.50;;;;;;;14.73;80.17;99677.06;7209974;40;20221;31
2023/09/27 07:31:05;;;;;;;8.80;7.10;;;;;;;14.94;80.52;99679.09;7234865;40;20305;31
2023/09/27 07:36:43;;;;;;;9.20;7.70;;;;;;;15.01;82.02;99677.31;7234096;40;20237;31
2023/09/27 07:42:18;;;;;;;10.37;8.40;;;;;;;15.04;83.72;99676.97;7293234;39;20274;31
2023/09/27 07:47:54;;;;;;;12.00;9.40;;;;;;;15.11;81.69;99667.88;7318597;39;20267;31
2023/09/27 07:58:30;;;;;;;11.70;10.27;;;;;;;15.55;81.85;99661.69;7294652;39;21407;31
2023/09/27 08:04:07;;;;;;;14.03;11.17;;;;;;;15.73;81.71;99659.44;7252262;40;20275;31
2023/09/27 08:09:44;;;;;;;12.40;10.75;;;;;;;15.89;83.89;99656.53;7293442;39;20249;31
2023/09/27 08:15:18;;;;;;;13.33;10.27;;;;;;;16.05;81.92;99656.31;7259183;40;20264;31
2023/09/27 08:20:55;;;;;;;11.83;10.47;;;;;;;16.27;82.68;99656.38;7228924;40;20320;31
2023/09/27 08:26:14;;;;;;;12.60;10.73;;;;;;;16.49;82.55;99661.66;7270058;40;20300;31
2023/09/27 08:31:37;;;;;;;17.50;10.30;;;;;;;16.64;80.68;99662.44;7249762;40;20242;31
2023/09/27 08:37:12;;;;;;;13.00;10.37;;;;;;;16.79;80.98;99658.81;7253091;40;20595;31
2023/09/27 08:42:47;;;;;;;11.30;9.05;;;;;;;16.91;81.02;99658.09;7280243;39;20322;31
2023/09/27 08:48:22;;;;;;;10.30;9.30;;;;;;;17.12;80.85;99658.06;7247902;40;20238;31
2023/09/27 08:53:56;;;;;;;12.97;9.90;;;;;;;17.28;80.79;99654.22;7216100;40;20269;31
2023/09/27 09:04:33;;;;;;;11.30;8.80;;;;;;;17.61;79.85;99649.00;7221592;40;20276;31
2023/09/27 09:10:10;;;;;;;10.70;8.63;;;;;;;17.73;79.33;99638.38;7219421;40;20343;31
2023/09/27 09:15:47;;;;;;;12.44;9.16;;;;;;;17.88;79.27;99641.81;7219701;40;21084;31
2023/09/27 09:21:18;;;;;;;13.00;11.60;;;;;;;17.97;79.42;99629.69;7316212;39;20384;31
2023/09/27 09:31:58;;;;;;;11.50;9.80;;;;;;;18.37;78.79;99614.28;7278808;40;21328;31
2023/09/27 09:37:29;;;;;;;9.80;8.77;;;;;;;18.55;78.12;99616.44;7257690;40;20346;31
2023/09/27 09:43:04;;;;;;;10.40;8.77;;;;;;;18.70;77.18;99609.75;7217896;40;20473;31
2023/09/27 09:48:38;;;;;;;10.80;9.45;;;;;;;18.86;76.76;99603.88;7148290;40;20253;31
2023/09/27 09:54:13;;;;;;;15.60;10.53;;;;;;;18.98;76.75;99592.31;7162978;40;20365;31
2023/09/27 09:59:48;;;;;;;8.60;7.80;;;;;;;19.16;75.63;99587.03;7149274;40;20253;31
2023/09/27 10:05:24;;;;;;;9.57;8.60;;;;;;;19.37;75.22;99584.91;7242672;40;20296;31
2023/09/27 10:10:59;;;;;;;10.03;7.00;;;;;;;19.60;75.07;99583.63;7244342;40;20245;31
2023/09/27 10:16:34;;;;;;;11.27;8.83;;;;;;;19.79;74.36;99586.25;7255075;40;20261;31
2023/09/27 10:22:24;;;;;;;10.07;6.77;;;;;;;20.03;74.51;99581.13;7217266;40;20355;31
2023/09/27 10:28:17;;;;;;;13.53;8.13;;;;;;;20.15;73.40;99584.84;7155039;40;20254;31
2023/09/27 10:33:39;;;;;;;12.23;7.97;;;;;;;20.29;72.59;99570.00;7093532;41;20245;31
2023/09/27 10:39:19;;;;;;;8.43;6.53;;;;;;;20.52;72.48;99566.75;7115680;40;20406;31
2023/09/27 10:44:43;;;;;;;8.98;6.82;;;;;;;20.76;70.96;99567.81;7167491;40;20391;31
2023/09/27 10:50:03;;;;;;;11.20;6.70;;;;;;;20.84;71.04;99559.34;7230645;40;20249;31
2023/09/27 10:55:41;;;;;;;7.10;6.40;;;;;;;21.05;69.84;99554.28;7240314;40;20457;31
2023/09/27 11:01:17;;;;;;;6.80;5.78;;;;;;;21.47;67.70;99554.50;7244173;39;20390;31
2023/09/27 11:06:53;;;;;;;7.13;5.20;;;;;;;21.49;67.44;99558.69;7301731;39;20365;31
2023/09/27 11:17:35;;;;;;;6.45;4.90;;;;;;;21.74;67.63;99546.78;7251500;40;21196;31
2023/09/27 11:28:05;;;;;;;7.55;4.43;;;;;;;22.14;66.22;99525.16;7286504;39;20554;31
2023/09/27 11:33:36;;;;;;;5.18;4.68;;;;;;;22.22;65.19;99500.97;7339416;39;20268;31
2023/09/27 11:39:13;;;;;;;5.30;4.30;;;;;;;22.40;64.60;99498.16;7314206;39;20498;31
2023/09/27 11:49:55;;;;;;;13.30;4.35;;;;;;;22.87;62.47;99460.56;7316676;39;20509;31
2023/09/27 12:00:19;;;;;;;4.93;4.30;;;;;;;23.17;62.64;99456.81;7271347;40;21320;31
2023/09/27 12:05:54;;;;;;;4.05;3.65;;;;;;;23.34;60.87;99446.75;7294785;40;20291;31
2023/09/27 12:16:21;;;;;;;5.30;3.20;;;;;;;23.73;60.07;99437.69;7341123;39;21019;31
2023/09/27 12:21:57;;;;;;;5.25;3.50;;;;;;;23.87;57.15;99437.37;7310347;39;20369;31
2023/09/27 12:27:17;;;;;;;4.80;3.80;;;;;;;23.95;59.28;99432.31;7256422;39;20271;31
2023/09/27 12:32:52;;;;;;;6.25;3.87;;;;;;;24.05;57.85;99415.94;7296482;39;20365;31
2023/09/27 12:43:33;;;;;;;6.25;3.90;;;;;;;24.29;58.38;99407.56;7323603;39;21182;31
2023/09/27 12:48:53;;;;;;;6.20;3.87;;;;;;;24.34;58.42;99407.66;7289464;39;20241;31
2023/09/27 12:54:29;;;;;;;4.90;3.83;;;;;;;24.38;58.39;99400.56;7269420;39;20260;31
2023/09/27 13:00:08;;;;;;;5.50;3.50;;;;;;;24.58;56.85;99384.31;7219694;40;20281;31
2023/09/27 13:10:45;;;;;;;5.35;4.25;;;;;;;24.73;55.97;99373.53;7285978;39;20781;31
2023/09/27 13:21:30;;;;;;;6.03;3.20;;;;;;;24.68;55.04;99366.03;7332359;39;20293;31
2023/09/27 13:27:05;;;;;;;6.17;3.40;;;;;;;24.81;55.23;99350.19;7258761;40;20241;31
2023/09/27 13:32:38;;;;;;;4.50;3.50;;;;;;;24.94;54.65;99349.84;7315765;39;20262;31
2023/09/27 13:38:14;;;;;;;5.60;3.58;;;;;;;24.95;55.37;99343.25;7300074;39;20256;31
2023/09/27 13:48:38;;;;;;;6.10;3.60;;;;;;;24.84;56.35;99333.13;7275928;40;21345;31
2023/09/27 13:59:19;;;;;;;7.82;4.48;;;;;;;24.75;55.12;99332.75;7337471;39;20270;31
2023/09/27 14:04:37;;;;;;;4.97;3.70;;;;;;;24.84;54.94;99335.88;7316751;39;20264;31
2023/09/27 14:10:13;;;;;;;4.63;3.90;;;;;;;24.93;55.01;99326.09;7302766;39;20259;31
2023/09/27 14:15:51;;;;;;;5.20;4.20;;;;;;;24.97;54.62;99316.22;7278306;40;20475;31
2023/09/27 14:21:12;;;;;;;5.00;4.00;;;;;;;24.96;54.81;99315.41;7260579;40;20258;31
2023/09/27 14:26:48;;;;;;;7.05;4.43;;;;;;;24.77;54.86;99308.50;7282308;40;20313;31
2023/09/27 14:32:25;;;;;;;5.86;4.02;;;;;;;24.65;55.91;99297.63;7266282;40;20259;31
2023/09/27 14:37:42;;;;;;;5.70;3.70;;;;;;;24.66;55.58;99295.69;7250798;40;22099;31
2023/09/27 14:43:19;;;;;;;5.40;4.05;;;;;;;24.52;57.12;99292.47;7259167;40;20448;31
2023/09/27 14:48:55;;;;;;;6.30;3.67;;;;;;;24.51;56.10;99282.53;7073913;40;20439;31
2023/09/27 14:59:35;;;;;;;5.25;3.40;;;;;;;24.24;57.50;99268.66;7311897;39;20278;31
2023/09/27 15:10:17;;;;;;;4.34;3.26;;;;;;;24.05;58.19;99260.88;7275245;39;20271;31
2023/09/27 15:15:41;;;;;;;5.92;3.23;;;;;;;24.04;58.37;99260.06;7264265;40;20252;31
2023/09/27 15:21:16;;;;;;;4.25;2.90;;;;;;;23.99;57.55;99251.72;7214542;40;20335;31
2023/09/27 15:26:53;;;;;;;4.32;2.95;;;;;;;23.95;57.45;99244.22;7236997;40;20440;31
2023/09/27 15:32:13;;;;;;;3.00;2.62;;;;;;;23.87;57.59;99245.44;7286827;39;20252;31
2023/09/27 15:37:33;;;;;;;3.63;2.57;;;;;;;23.77;58.22;99251.66;7313624;39;20240;31
2023/09/27 15:43:11;;;;;;;3.92;3.10;;;;;;;23.68;59.03;99242.16;7285600;39;20248;31
2023/09/27 15:48:45;;;;;;;3.90;3.00;;;;;;;23.68;57.80;99233.88;7251193;40;20241;31
2023/09/27 15:54:33;;;;;;;;;;;;;;;;;;;;;
2023/09/27 16:00:01;;;;;;;4.25;3.10;;;;;;;23.55;58.74;99238.87;7187593;40;20239;31
2023/09/27 16:05:30;;;;;;;;;;;;;;;;;;;;;
2023/09/27 16:16:04;;;;;;;5.70;2.90;;;;;;;23.38;59.89;99243.50;7350341;39;20278;31
2023/09/27 16:21:26;;;;;;;3.15;2.85;;;;;;;23.31;59.62;99252.75;7338980;39;20233;31
2023/09/27 16:27:00;;;;;;;5.37;3.10;;;;;;;23.23;61.58;99253.16;7297652;39;20280;31
2023/09/27 16:32:37;;;;;;;4.15;2.65;;;;;;;23.08;63.15;99263.84;7300209;39;20272;31
2023/09/27 16:38:10;;;;;;;3.65;3.15;;;;;;;22.95;63.45;99261.41;7298401;39;20256;31
2023/09/27 16:43:46;;;;;;;4.05;3.45;;;;;;;22.83;64.23;99271.59;7241119;40;20514;31
2023/09/27 16:49:23;;;;;;;5.08;3.04;;;;;;;22.58;65.02;99262.81;7171786;40;20307;31
2023/09/27 16:54:45;;;;;;;4.50;3.30;;;;;;;22.37;64.92;99256.91;7171161;40;20337;31
2023/09/27 17:00:21;;;;;;;3.77;3.10;;;;;;;22.07;66.02;99256.22;7263225;40;20358;31
2023/09/27 17:06:00;;;;;;;5.57;3.10;;;;;;;21.78;66.90;99257.94;7266627;39;20269;31
2023/09/27 17:16:40;;;;;;;5.87;3.20;;;;;;;21.37;67.34;99272.53;7277270;40;20839;31
2023/09/27 17:22:16;;;;;;;4.95;3.20;;;;;;;21.18;68.06;99270.09;7294880;39;20261;31
2023/09/27 17:32:57;;;;;;;4.57;3.17;;;;;;;20.78;68.07;99272.53;7317473;39;21534;31
2023/09/27 17:38:33;;;;;;;3.80;3.23;;;;;;;20.61;68.98;99278.63;7314351;39;20499;31
2023/09/27 17:49:13;;;;;;;4.05;3.45;;;;;;;20.28;69.41;99258.97;7295382;39;20267;31
2023/09/27 17:54:50;;;;;;;6.07;3.43;;;;;;;20.05;69.79;99256.06;7294101;39;20286;31
2023/09/27 18:00:30;;;;;;;5.90;3.50;;;;;;;19.84;70.10;99253.75;7310346;39;20317;31
2023/09/27 18:06:12;;;;;;;4.70;3.50;;;;;;;19.66;70.55;99241.69;7110047;40;21056;31
2023/09/27 18:11:48;;;;;;;6.33;3.47;;;;;;;19.53;70.02;99247.28;7177149;40;20465;31
2023/09/27 18:22:17;;;;;;;3.70;3.40;;;;;;;19.34;70.72;99260.03;7235676;40;20269;31
2023/09/27 18:27:54;;;;;;;5.57;3.47;;;;;;;19.23;71.18;99263.47;7245888;40;20257;31
2023/09/27 18:38:34;;;;;;;6.77;3.40;;;;;;;19.00;71.52;99270.56;7297172;39;21092;31
2023/09/27 18:49:13;;;;;;;5.97;3.30;;;;;;;18.74;71.34;99266.06;7307529;39;20251;31
2023/09/27 18:59:38;;;;;;;5.34;3.46;;;;;;;18.56;71.65;99272.22;7331180;39;20339;31
2023/09/27 19:10:20;;;;;;;6.30;3.30;;;;;;;18.34;73.02;99273.56;7364217;39;21111;31
2023/09/27 19:20:45;;;;;;;4.70;3.40;;;;;;;18.32;72.73;99278.38;7306734;39;21096;31
2023/09/27 19:26:22;;;;;;;4.68;3.20;;;;;;;18.19;72.25;99281.12;7262745;40;20328;31
2023/09/27 19:31:56;;;;;;;4.40;3.20;;;;;;;18.11;72.65;99281.38;7221078;40;20356;31
2023/09/27 19:37:17;;;;;;;5.00;2.80;;;;;;;18.10;72.59;99287.88;7259331;40;20268;31
2023/09/27 19:42:54;;;;;;;3.70;3.30;;;;;;;17.96;72.75;99285.16;7251963;40;20241;31
2023/09/27 19:48:15;;;;;;;4.03;2.87;;;;;;;17.91;72.80;99282.22;7232185;40;20268;31
2023/09/27 19:53:35;;;;;;;4.33;3.03;;;;;;;17.87;73.11;99272.78;7254169;40;20260;31
2023/09/27 20:04:17;;;;;;;4.82;3.16;;;;;;;17.69;72.95;99279.94;7288734;39;21194;31
2023/09/27 20:09:39;;;;;;;3.10;2.80;;;;;;;17.69;72.51;99272.59;7305352;39;20397;31
2023/09/27 20:15:14;;;;;;;3.10;2.80;;;;;;;17.61;72.78;99272.81;7298323;39;20280;31
2023/09/27 20:25:55;;;;;;;4.10;3.40;;;;;;;17.22;73.26;99267.31;7347197;39;20293;31
2023/09/27 20:36:20;;;;;;;3.55;2.90;;;;;;;17.15;73.22;99255.56;7331039;39;20246;31
2023/09/27 20:47:01;;;;;;;3.16;2.62;;;;;;;16.83;73.85;99246.28;7387722;39;21122;31
2023/09/27 20:52:18;;;;;;;4.20;2.60;;;;;;;16.73;73.93;99260.28;7336367;39;20255;31
2023/09/27 20:57:53;;;;;;;2.90;2.55;;;;;;;16.80;74.18;99263.03;7292734;39;20233;31
2023/09/27 21:03:28;;;;;;;2.90;2.60;;;;;;;16.84;74.69;99276.03;7257418;40;20239;31
2023/09/27 21:08:48;;;;;;;3.10;2.70;;;;;;;16.92;74.13;99261.37;7222633;40;20241;31
2023/09/27 21:14:23;;;;;;;2.75;2.40;;;;;;;17.00;74.36;99253.87;7251071;40;20263;31
2023/09/27 21:25:05;;;;;;;4.50;2.70;;;;;;;16.94;74.68;99241.06;7331153;39;20261;31
2023/09/27 21:35:29;;;;;;;3.30;2.95;;;;;;;16.59;74.99;99239.50;7277092;40;20759;31
2023/09/27 21:46:10;;;;;;;2.97;2.67;;;;;;;16.49;75.10;99239.03;7297155;39;21187;31
2023/09/27 21:56:36;;;;;;;3.05;2.62;;;;;;;16.64;75.19;99239.72;7323098;39;21233;31
2023/09/27 22:07:16;;;;;;;4.40;2.50;;;;;;;16.66;74.52;99243.09;7348558;39;20267;31
2023/09/27 22:18:00;;;;;;;3.07;2.60;;;;;;;16.63;75.07;99238.87;7286892;39;20272;31
2023/09/27 22:28:40;;;;;;;3.23;2.60;;;;;;;16.77;75.37;99228.88;7270518;39;20361;31
2023/09/27 22:34:22;;;;;;;3.20;2.90;;;;;;;16.77;74.86;99230.75;7198956;40;20245;31
2023/09/27 22:40:06;;;;;;;2.60;2.40;;;;;;;16.75;74.67;99225.53;7281596;39;20247;31
2023/09/27 22:45:30;;;;;;;3.65;2.45;;;;;;;16.66;75.76;99219.44;7092111;40;20277;31
2023/09/27 22:50:51;;;;;;;2.90;2.60;;;;;;;16.44;74.89;99236.91;7269792;39;20241;31
2023/09/27 22:56:11;;;;;;;3.30;2.40;;;;;;;16.37;74.71;99225.16;7280981;40;20441;31
2023/09/27 23:01:50;;;;;;;3.13;2.60;;;;;;;16.40;76.31;99215.75;7277320;40;20242;31
2023/09/27 23:07:22;;;;;;;2.90;2.47;;;;;;;16.36;75.69;99220.78;7337613;39;20239;31
2023/09/27 23:12:42;;;;;;;3.73;2.47;;;;;;;16.38;76.09;99224.13;7295145;39;20355;31
2023/09/27 23:18:26;;;;;;;2.40;2.20;;;;;;;16.43;76.05;99223.50;7262946;40;20267;31
2023/09/27 23:23:59;;;;;;;2.93;2.30;;;;;;;16.49;75.03;99219.97;7240516;40;20246;31
2023/09/27 23:29:36;;;;;;;3.47;2.23;;;;;;;16.49;74.96;99233.59;7253389;40;20261;31
2023/09/27 23:35:12;;;;;;;2.90;2.60;;;;;;;16.31;76.31;99230.56;7237693;40;20337;31
2023/09/27 23:40:33;;;;;;;4.20;2.50;;;;;;;16.25;76.41;99232.22;7224651;40;20430;31
2023/09/27 23:45:53;;;;;;;3.85;2.60;;;;;;;16.35;76.55;99234.56;7238024;40;20254;31
2023/09/27 23:51:29;;;;;;;5.30;2.67;;;;;;;16.48;76.18;99212.84;7276461;39;20253;31
2023/09/27 23:57:07;;;;;;;2.70;2.50;;;;;;;16.35;75.85;99215.53;7303839;39;20252;31
